Disclaimer

Please do not use the information listed here in-flight or in-navigation, as they are not provided to us by the airports but are provided by volunteers, so they might be outdated.

Search


Regions


Airport information page

No radio frequency information is available.

Airport informations:
Latitude: 62° 39' 46.46" N
Longitude: 029° 36' 27.18" E
Elevation: 398 feet - 121 meters
Operating hours: N/A
Operating agency: Civil government, landing fees and diplomatic clearance may be required
Timezone: UTC+2(+3DT) - Last Sunday in March to last Sunday in October
Fuel: Jet A1, without icing nhibitor.

100/130 MIL Spec, low lead, aviation gasoline (BLUE)

Runway information:
10/28 - 8202 x 171 feet< - >2500 x 52 meters
17/35 - 3937 x 98 feet< - >1200 x 30 meters

Recent METARs:
EFJO 181920Z AUTO 02007KT 350V060 9999 OVC028 00/M06 Q1039
EFJO 181950Z AUTO 04010KT 350V070 9999 OVC027 00/M06 Q1039
EFJO 182020Z AUTO 04011KT 010V070 9999 OVC028 00/M06 Q1039

Airport on the map: